UHPP Airport Information

Runway Information
Runway 12 Length 735 ft width 50 ft
Elevation 0 ft Threshold 0 ft Heading 118
Runway 30 Length 735 ft Width 50 ft
Elevation 0 ft Threshold 0 ft Heading 298
Runway 16L Length 11155 ft width 197 ft
Elevation 112 ft Threshold 0 ft Heading 157
Runway 34R Length 11155 ft Width 197 ft
Elevation 131 ft Threshold 0 ft Heading 337
Runway 16R Length 8235 ft width 197 ft
Elevation 0 ft Threshold 0 ft Heading 157
Runway 34L Length 8235 ft Width 197 ft
Elevation 0 ft Threshold 0 ft Heading 337
Airport Frequencies
Type ARSA Name PETROPAVLO Frequency 119.4 MHZ
Type TWR Name PETROPAVLO Frequency 118.1 MHZ
Airport Navaids
Type NDB Name Petropavlovsk-Kamchatsky Frequency 535 KHZ
Airport Weather Information & NOTAM
ADDS - METARS form results

(2024 UTC 16 July 2018)
 
METAR text: UHPP 162000Z VRB01MPS 3300 BR OVC003 12/12 Q1014 R34L/190060 NOSIG RMK MT OBSC QFE757/1009
Conditions at: UHPP (PETROPAVLOVSK-KA, RU) observed 2000 UTC 16 July 2018
Temperature: 12.0°C (54°F)
Dewpoint: 12.0°C (54°F) [RH = 100%]
Pressure (altimeter): 29.94 inches Hg (1014.0 mb)
Winds: variable direction winds at 2 MPH (2 knots; 1.0 m/s)
Visibility: 2.05 miles (3.30 km)
Ceiling: 300 feet AGL
Clouds: overcast cloud deck at 300 feet AGL
Weather: BR  (mist)

METAR text: UHPP 161930Z VRB01MPS 2900 -DZ BR OVC002 12/12 Q1014 R34L/190060 NOSIG RMK MT OBSC QFE757/1009
Conditions at: UHPP (PETROPAVLOVSK-KA, RU) observed 1930 UTC 16 July 2018
Temperature: 12.0°C (54°F)
Dewpoint: 12.0°C (54°F) [RH = 100%]
Pressure (altimeter): 29.94 inches Hg (1014.0 mb)
Winds: variable direction winds at 2 MPH (2 knots; 1.0 m/s)
Visibility: 1.80 miles (2.90 km)
Ceiling: 200 feet AGL
Clouds: overcast cloud deck at 200 feet AGL
Weather: -DZ BR  (light drizzle, mist)